Flight Track Log - Related Links

Times and Time Zones

All times are in EDT time to prevent confusion due to time zone crossing. See the AVN51 flight status page for this flight to view local times or setup timezone preferences in your user account.

Time Position Orientation Groundspeed Altitude Reporting Facility
EDT Latitude Longitude Course Direction KTS MPH feet Rate Location/Type
Fri 08:06:00 PM -37.0120 174.7860 247° West 135 155  Level FlightAware ADS-B
Fri 08:06:20 PM -37.0160 174.7700 253° West 157 181 1,043 Level FlightAware ADS-B
Fri 08:06:46 PM -37.0220 174.7510 248° West 161 185 800 1,696 Climbing FlightAware ADS-B
Fri 08:07:06 PM -37.0280 174.7300 250° West 175 201 1,300 1,400 Climbing FlightAware ADS-B
Fri 08:07:16 PM -37.0300 174.7210 254° West 180 207 1,500 1,538 Climbing FlightAware ADS-B
Fri 08:07:45 PM -37.0390 174.6890 251° West 204 235 2,300 1,867 Climbing FlightAware ADS-B
Fri 08:08:01 PM -37.0440 174.6710 251° West 203 234 2,900 2,357 Climbing FlightAware ADS-B
Fri 08:08:13 PM -37.0450 174.6600 263° West 203 234 3,400 2,357 Climbing FlightAware ADS-B
Fri 08:08:29 PM -37.0360 174.6390 298° West 219 252 4,000 1,600 Climbing FlightAware ADS-B
Fri 08:08:43 PM -37.0260 174.6280 319° Northwest 238 274 4,200 1,091 Climbing FlightAware ADS-B
Fri 08:08:51 PM -37.0180 174.6190 318° Northwest 244 281 4,400 1,091 Climbing FlightAware ADS-B
Fri 08:09:05 PM -37.0060 174.6060 319° Northwest 263 303 4,600 1,059 Climbing FlightAware ADS-B
Fri 08:09:08 PM -37.0030 174.6020 313° West 265 305 4,700 1,286 Climbing FlightAware ADS-B
Fri 08:09:19 PM -36.9940 174.5930 321° Northwest 278 320 4,900 889 Climbing FlightAware ADS-B
Fri 08:09:35 PM -36.9760 174.5730 318° Northwest 295 339 5,100 818 Climbing FlightAware ADS-B
Fri 08:09:41 PM -36.9710 174.5670 316° Northwest 300 345 5,200 1,200 Climbing FlightAware ADS-B
Fri 08:09:45 PM -36.9660 174.5620 321° Northwest 304 350 5,300 1,000 Climbing FlightAware ADS-B
Fri 08:09:59 PM -36.9520 174.5460 318° Northwest 318 366 5,500 1,200 Climbing FlightAware ADS-B
Fri 08:10:05 PM -36.9440 174.5370 318° Northwest 319 367 5,700 2,500 Climbing FlightAware ADS-B
Fri 08:10:11 PM -36.9370 174.5290 318° Northwest 320 368 6,000 2,182 Climbing FlightAware ADS-B
Fri 08:10:16 PM -36.9320 174.5240 321° Northwest 323 372 6,100 1,000 Climbing FlightAware ADS-B
Fri 08:10:23 PM -36.9280 174.5210 329° Northwest 328 377 6,200 1,385 Climbing FlightAware ADS-B
Fri 08:10:29 PM -36.9190 174.5150 332° Northwest 331 381 6,400 3,000 Climbing FlightAware ADS-B
Fri 08:10:35 PM -36.9060 174.5070 334° Northwest 333 383 6,800 2,500 Climbing FlightAware ADS-B
Fri 08:10:41 PM -36.9000 174.5030 332° Northwest 335 386 6,900 1,333 Climbing FlightAware ADS-B
Fri 08:10:44 PM -36.8960 174.5000 329° Northwest 336 387 7,000 2,500 Climbing FlightAware ADS-B
Fri 08:10:53 PM -36.8810 174.4910 334° Northwest 336 387 7,400 2,769 Climbing FlightAware ADS-B
Fri 08:10:57 PM -36.8770 174.4880 329° Northwest 336 387 7,600 3,000 Climbing FlightAware ADS-B
Fri 08:11:01 PM -36.8700 174.4840 335° Northwest 336 387 7,800 2,143 Climbing FlightAware ADS-B
Fri 08:11:11 PM -36.8580 174.4760 332° Northwest 336 387 8,100 2,400 Climbing FlightAware ADS-B
Fri 08:11:16 PM -36.8520 174.4720 332° Northwest 337 388 8,400 2,143 Climbing FlightAware ADS-B
Fri 08:11:39 PM -36.8180 174.4500 333° Northwest 346 398 9,100 1,778 Climbing FlightAware ADS-B
Fri 08:11:43 PM -36.8120 174.4460 332° Northwest 347 399 9,200 1,091 Climbing FlightAware ADS-B
Fri 08:11:50 PM -36.8080 174.4430 329° Northwest 352 405 9,300 2,400 Climbing FlightAware ADS-B
Fri 08:12:08 PM -36.7770 174.4230 333° Northwest 354 407 10,200 2,519 Climbing FlightAware ADS-B
Fri 08:13:11 PM -36.6860 174.3660 333° Northwest 369 425 12,700 2,522 Climbing FlightAware ADS-B
Fri 08:13:17 PM -36.6750 174.3590 333° Northwest 369 425 13,100 4,286 Climbing FlightAware ADS-B
Fri 08:13:18 PM -36.6720 174.3570 332° Northwest 368 423 13,200 3,900 Climbing FlightAware ADS-B
Fri 08:13:37 PM -36.6440 174.3380 331° Northwest 359 413 14,400 3,857 Climbing FlightAware ADS-B
Fri 08:13:46 PM -36.6340 174.3310 331° Northwest 354 407 15,000 2,571 Climbing FlightAware ADS-B
Fri 08:13:51 PM -36.6330 174.3300 321° Northwest 350 403 15,000 3,500 Level FlightAware ADS-B
Fri 08:13:58 PM -36.6140 174.3190 335° Northwest 352 405 15,700 4,909 Climbing FlightAware ADS-B
Fri 08:14:02 PM -36.6100 174.3170 338° Northwest 358 412 15,900 2,824 Climbing FlightAware ADS-B
Fri 08:14:15 PM -36.5870 174.3110 348° North 360 414 16,500 2,526 Climbing FlightAware ADS-B
Fri 08:14:21 PM -36.5770 174.3080 346° North 363 418 16,700 1,000 Climbing FlightAware ADS-B
Fri 08:14:27 PM -36.5680 174.3040 340° North 369 425 16,700 667 Level FlightAware ADS-B
Fri 08:14:30 PM -36.5640 174.3030 349° North 372 428 16,800 1,714 Climbing FlightAware ADS-B
Fri 08:15:09 PM -36.4950 174.2770 343° North 394 453 17,900 1,867 Climbing FlightAware ADS-B
Fri 08:15:15 PM -36.4850 174.2730 342° North 393 452 18,200 3,000 Climbing FlightAware ADS-B
Fri 08:15:21 PM -36.4730 174.2690 345° North 394 453 18,500 2,500 Climbing FlightAware ADS-B
Fri 08:15:27 PM -36.4620 174.2650 344° North 396 456 18,700 2,000 Climbing FlightAware ADS-B
Fri 08:15:33 PM -36.4540 174.2620 343° North 397 457 18,900 2,000 Climbing FlightAware ADS-B
Fri 08:15:39 PM -36.4430 174.2590 348° North 399 459 19,100 2,000 Climbing FlightAware ADS-B
Fri 08:15:45 PM -36.4320 174.2550 344° North 401 461 19,300 2,000 Climbing FlightAware ADS-B
Fri 08:15:51 PM -36.4210 174.2510 344° North 403 464 19,500 2,000 Climbing FlightAware ADS-B
Fri 08:15:57 PM -36.4090 174.2470 345° North 405 466 19,700 2,000 Climbing FlightAware ADS-B
Fri 08:16:03 PM -36.3980 174.2430 344° North 406 467 19,900 2,000 Climbing FlightAware ADS-B
Fri 08:16:09 PM -36.3890 174.2400 345° North 407 468 20,100 2,000 Climbing FlightAware ADS-B
Fri 08:16:15 PM -36.3770 174.2360 345° North 408 470 20,300 1,846 Climbing FlightAware ADS-B
Fri 08:16:22 PM -36.3650 174.2320 345° North 409 471 20,500 2,000 Climbing FlightAware ADS-B
Fri 08:16:27 PM -36.3550 174.2280 342° North 411 473 20,700 2,182 Climbing FlightAware ADS-B
Fri 08:16:33 PM -36.3440 174.2240 344° North 412 474 20,900 2,000 Climbing FlightAware ADS-B
Fri 08:16:39 PM -36.3340 174.2210 346° North 413 475 21,100 2,500 Climbing FlightAware ADS-B
Fri 08:16:45 PM -36.3220 174.2160 341° North 414 476 21,400 2,500 Climbing FlightAware ADS-B
Fri 08:16:51 PM -36.3110 174.2130 348° North 415 478 21,600 1,500 Climbing FlightAware ADS-B
Fri 08:16:57 PM -36.3010 174.2090 342° North 416 479 21,700 1,500 Climbing FlightAware ADS-B
Fri 08:17:03 PM -36.2900 174.2050 344° North 417 480 21,900 2,400 Climbing FlightAware ADS-B
Fri 08:17:07 PM -36.2810 174.2020 345° North 418 481 22,100 2,143 Climbing FlightAware ADS-B
Fri 08:17:42 PM -36.2167 174.1833 345° North 418 481 2,053 Descending New Zealand
Fri 08:17:45 PM -36.2110 174.1780 345° North 421 484 23,400 157,333 Climbing FlightAware ADS-B
Fri 08:17:51 PM -36.2010 174.1750 346° North 422 486 23,600 2,000 Climbing FlightAware ADS-B
Fri 08:17:57 PM -36.1900 174.1710 344° North 422 486 23,800 2,000 Climbing FlightAware ADS-B
Fri 08:18:03 PM -36.1750 174.1660 345° North 425 489 24,000 1,500 Climbing FlightAware ADS-B
Fri 08:18:09 PM -36.1650 174.1620 342° North 425 489 24,100 1,500 Climbing FlightAware ADS-B
Fri 08:18:15 PM -36.1530 174.1580 345° North 427 491 24,300 1,846 Climbing FlightAware ADS-B
Fri 08:18:22 PM -36.1420 174.1540 344° North 428 493 24,500 1,500 Climbing FlightAware ADS-B
Fri 08:18:27 PM -36.1310 174.1500 344° North 429 494 24,600 1,636 Climbing FlightAware ADS-B
Fri 08:18:33 PM -36.1190 174.1460 345° North 430 495 24,800 1,500 Climbing FlightAware ADS-B
Fri 08:18:39 PM -36.1090 174.1430 346° North 431 496 24,900 1,500 Climbing FlightAware ADS-B
Fri 08:18:45 PM -36.0980 174.1390 344° North 433 498 25,100 1,500 Climbing FlightAware ADS-B
Fri 08:18:51 PM -36.0850 174.1340 343° North 434 499 25,200 1,000 Climbing FlightAware ADS-B
Fri 08:18:57 PM -36.0740 174.1300 344° North 435 501 25,300 1,636 Climbing FlightAware ADS-B
Fri 08:19:02 PM -36.0640 174.1270 346° North 437 503 25,500 1,500 Climbing FlightAware ADS-B
Fri 08:19:05 PM -36.0620 174.1260 338° Northwest 438 504 25,500 1,286 Level FlightAware ADS-B
Fri 08:19:44 PM -35.9833 174.1000 338° Northwest 444 511 1,358 Descending New Zealand
Fri 08:19:58 PM -35.9550 174.0890 338° Northwest 448 516 26,700 33,551 Climbing FlightAware ADS-B
Fri 08:20:33 PM -35.8840 174.0650 345° North 454 522 27,400 1,286 Climbing FlightAware ADS-B
Fri 08:21:08 PM -35.8140 174.0400 344° North 450 518 28,200 1,457 Climbing FlightAware ADS-B
Fri 08:21:43 PM -35.7420 174.0160 344° North 449 517 29,100 1,760 Climbing FlightAware ADS-B
Fri 08:21:47 PM -35.7333 174.0167 344° North 458 527 1,950 Descending New Zealand
Fri 08:22:23 PM -35.6610 173.9880 344° North 448 516 30,400 26,535 Climbing FlightAware ADS-B
Fri 08:22:58 PM -35.5910 173.9640 344° North 437 503 31,400 1,543 Climbing FlightAware ADS-B
Fri 08:23:33 PM -35.5230 173.9410 345° North 437 503 32,200 1,280 Climbing FlightAware ADS-B
Fri 08:24:13 PM -35.4420 173.9130 344° North 436 502 33,000 1,183 Climbing FlightAware ADS-B
Fri 08:24:44 PM -35.3820 173.8930 344° North 437 503 33,600 985 Climbing FlightAware ADS-B
Fri 08:24:52 PM -35.3667 173.8833 344° North 445 512 833 Descending New Zealand
Fri 08:25:20 PM -35.3110 173.8680 344° North 449 517 34,100 33,484 Climbing FlightAware ADS-B
Fri 08:25:53 PM -35.2333 173.8333 344° North 451 519 882 Descending New Zealand
Fri 08:25:54 PM -35.2410 173.8440 344° North 453 521 34,600 58,667 Climbing FlightAware ADS-B
Fri 08:26:29 PM -35.1700 173.8200 345° North 453 521 35,200 1,029 Climbing FlightAware ADS-B
Fri 08:27:04 PM -35.1000 173.7970 345° North 451 519 35,800 686 Climbing FlightAware ADS-B
Fri 08:27:39 PM -35.0290 173.7730 345° North 452 520 36,000 174 Climbing FlightAware ADS-B
Fri 08:28:13 PM -34.9590 173.7500 345° North 451 519 36,000  Level FlightAware ADS-B
Fri 08:28:44 PM -34.8970 173.7290 345° North 452 520 36,000  Level FlightAware ADS-B
Fri 08:28:57 PM -34.8667 173.7167 345° North 452 520  Descending New Zealand
Fri 08:29:24 PM -34.8170 173.7020 345° North 451 519 36,000 34,286 Climbing FlightAware ADS-B
Fri 08:29:59 PM -34.7500 173.6667 345° North 452 520  Descending New Zealand
Fri 08:30:00 PM -34.7450 173.6770 345° North 451 519 36,000 61,714 Climbing FlightAware ADS-B
Fri 08:30:34 PM -34.6760 173.6540 345° North 451 519 36,000  Level FlightAware ADS-B
Fri 08:31:10 PM -34.6040 173.6300 345° North 451 519 36,000  Level FlightAware ADS-B
Fri 08:31:44 PM -34.5350 173.6070 345° North 452 520 36,000  Level FlightAware ADS-B
Fri 08:32:20 PM -34.4620 173.5820 344° North 452 520 36,000  Level FlightAware ADS-B
Fri 08:32:54 PM -34.3930 173.5600 344° North 453 521 36,000  Level FlightAware ADS-B
Fri 08:33:03 PM -34.3667 173.5500 344° North 452 520  Descending New Zealand
Fri 08:33:30 PM -34.3210 173.5360 345° North 453 521 36,000 35,410 Climbing FlightAware ADS-B
Fri 08:34:04 PM -34.2500 173.5167 345° North 453 521  Descending New Zealand
Fri 08:34:04 PM -34.2510 173.5130 345° North 454 522 36,000 60,000 Climbing FlightAware ADS-B
Fri 08:34:40 PM -34.1800 173.4890 344° North 447 514 36,000  Level FlightAware ADS-B
Fri 08:35:14 PM -34.1090 173.4660 345° North 448 516 36,000  Level FlightAware ADS-B
Fri 08:35:50 PM -34.0370 173.4420 345° North 448 516 36,000  Level FlightAware ADS-B
Fri 08:36:20 PM -33.9760 173.4220 345° North 448 516 36,000  Level FlightAware ADS-B
Fri 08:36:56 PM -33.9030 173.3980 345° North 448 516 36,000  Level FlightAware ADS-B
Fri 08:37:40 PM -33.8140 173.3670 344° North 454 522 36,000  Level FlightAware ADS-B
Fri 08:38:10 PM -33.7500 173.3333 344° North 452 520  Descending New Zealand
Fri 08:38:20 PM -33.7420 173.3390 344° North 453 521 36,000 45,000 Climbing FlightAware ADS-B
Fri 08:38:58 PM -33.6770 173.3130 342° North 453 521 36,000  Level FlightAware ADS-B
Fri 08:39:34 PM -33.6160 173.2900 343° North 453 521 36,000  Level FlightAware ADS-B
Fri 08:40:06 PM -33.5167 173.2500 343° North 437 503  Descending New Zealand
Fri 08:40:11 PM -33.5530 173.2650 343° North 453 521 36,000 432,000 Climbing FlightAware ADS-B
Fri 08:41:14 PM -33.3833 173.2000 343° North 447 514 -34,286 Descending New Zealand
Fri 08:42:06 PM -33.2833 173.1667 344° North 437 503  Level New Zealand
Fri 08:43:17 PM -33.1333 173.1167 344° North 447 514  Level New Zealand
Fri 08:44:06 PM -33.0500 173.0833 341° North 437 503  Level New Zealand
Fri 08:45:20 PM -32.9000 173.0167 340° North 447 514  Level New Zealand
Fri 08:46:05 PM -32.8167 173.0000 350° North 437 503  Level New Zealand
Fri 08:48:05 PM -32.5833 172.9167 343° North 437 503  Level New Zealand
Fri 08:50:05 PM -32.3500 172.8333 343° North 437 503  Level New Zealand
Fri 08:52:05 PM -32.1167 172.7500 343° North 437 503  Level New Zealand
Fri 08:54:06 PM -31.8833 172.6667 343° North 437 503  Level New Zealand
Fri 08:56:06 PM -31.6500 172.5833 343° North 437 503  Level New Zealand
Fri 08:58:06 PM -31.4167 172.5000 343° North 437 503  Level New Zealand
Fri 09:00:13 PM -31.1667 172.4167 344° North 437 503  Level New Zealand
Fri 09:02:13 PM -30.9333 172.3333 343° North 437 503  Level New Zealand
Fri 09:04:13 PM -30.7000 172.2500 343° North 437 503  Level New Zealand
Fri 09:06:13 PM -30.4667 172.1667 343° North 437 503  Level New Zealand
Fri 09:08:13 PM -30.2333 172.0833 343° North 437 503  Level New Zealand
Fri 09:10:13 PM -30.0000 172.0167 346° North 437 503  Level New Zealand
Fri 09:12:13 PM -29.7667 171.9333 343° North 437 503  Level New Zealand
Fri 09:14:13 PM -29.5333 171.8500 343° North 396 456  Level New Zealand
Fri 09:16:13 PM -29.3333 171.7833 344° North 396 456  Level New Zealand
Fri 09:18:13 PM -29.1167 171.7167 345° North 396 456  Level New Zealand
Fri 09:20:13 PM -28.9000 171.6333 341° North 398 458  Level New Zealand
Fri 09:22:13 PM -28.6833 171.5667 345° North 398 458  Level New Zealand
Fri 09:24:13 PM -28.4667 171.5000 345° North 398 458  Level New Zealand
Fri 09:26:13 PM -28.2667 171.4333 344° North 398 458  Level New Zealand
Fri 09:28:13 PM -28.0500 171.3500 341° North 398 458  Level New Zealand
Fri 09:30:13 PM -27.8333 171.2833 345° North 398 458  Level New Zealand
Fri 09:32:13 PM -27.6167 171.2167 345° North 398 458  Level New Zealand
Fri 09:34:13 PM -27.4000 171.1500 345° North 398 458  Level New Zealand
Fri 09:36:12 PM -27.2000 171.0833 343° North 398 458  Level New Zealand
Fri 09:38:12 PM -26.9833 171.0167 345° North 398 458  Level New Zealand
Fri 09:40:12 PM -26.7667 170.9500 345° North 398 458  Level New Zealand
Fri 09:42:12 PM -26.5500 170.8833 345° North 398 458  Level New Zealand
Fri 09:44:12 PM -26.3500 170.8167 343° North 398 458  Level New Zealand
Fri 09:46:12 PM -26.1333 170.7333 341° North 398 458  Level New Zealand
Fri 09:48:12 PM -25.9167 170.6667 345° North 398 458  Level New Zealand
Fri 09:50:00 PM -25.7577 170.6220 346° North  Level FlightAware Approximate
Fri 09:57:00 PM -25.1454 170.4236 344° North  Level FlightAware Approximate
Fri 09:58:00 PM -25.0580 170.3952 344° North  Level FlightAware Approximate
Fri 09:59:00 PM -24.9706 170.3668 344° North  Level FlightAware Approximate
Fri 10:00:00 PM -24.8831 170.3385 344° North  Level FlightAware Approximate
Fri 10:01:00 PM -24.7957 170.3103 344° North  Level FlightAware Approximate
Fri 10:02:00 PM -24.7082 170.2821 344° North  Level FlightAware Approximate
Fri 10:03:00 PM -24.6208 170.2539 344° North  Level FlightAware Approximate
Fri 10:04:00 PM -24.5333 170.2257 344° North  Level FlightAware Approximate
Fri 10:05:00 PM -24.4459 170.1976 344° North  Level FlightAware Approximate
Fri 10:06:00 PM -24.3584 170.1696 344° North  Level FlightAware Approximate
Fri 10:07:00 PM -24.2709 170.1416 344° North  Level FlightAware Approximate
Fri 10:08:00 PM -24.1835 170.1136 344° North  Level FlightAware Approximate
Fri 10:09:00 PM -24.0960 170.0856 344° North  Level FlightAware Approximate
Fri 10:10:00 PM -24.0085 170.0577 344° North  Level FlightAware Approximate
Fri 10:11:00 PM -23.9210 170.0299 344° North  Level FlightAware Approximate
Fri 10:12:00 PM -23.8335 170.0020 344° North  Level FlightAware Approximate
Fri 10:13:00 PM -23.7460 169.9742 344° North  Level FlightAware Approximate
Fri 10:14:00 PM -23.6585 169.9465 344° North  Level FlightAware Approximate
Fri 10:15:00 PM -23.5710 169.9188 344° North  Level FlightAware Approximate
Fri 10:16:00 PM -23.4834 169.8911 344° North  Level FlightAware Approximate
Fri 10:17:00 PM -23.3959 169.8634 344° North  Level FlightAware Approximate
Fri 10:18:00 PM -23.3084 169.8358 344° North  Level FlightAware Approximate
Fri 10:19:00 PM -23.2209 169.8082 344° North  Level FlightAware Approximate
Fri 10:20:00 PM -23.1333 169.7807 344° North  Level FlightAware Approximate
Fri 10:21:00 PM -23.0458 169.7532 344° North  Level FlightAware Approximate
Fri 10:22:00 PM -22.9582 169.7258 344° North  Level FlightAware Approximate
Fri 10:23:00 PM -22.8707 169.6983 344° North  Level FlightAware Approximate
Fri 10:24:00 PM -22.7831 169.6709 344° North  Level FlightAware Approximate
Fri 10:25:00 PM -22.6956 169.6436 344° North  Level FlightAware Approximate
Fri 10:26:00 PM -22.6080 169.6163 344° North  Level FlightAware Approximate
Fri 10:27:00 PM -22.5205 169.5890 344° North  Level FlightAware Approximate
Fri 10:28:00 PM -22.4329 169.5617 344° North  Level FlightAware Approximate
Fri 10:29:00 PM -22.3453 169.5345 344° North  Level FlightAware Approximate
Fri 10:30:00 PM -22.2577 169.5073 344° North  Level FlightAware Approximate
Fri 10:31:00 PM -22.1701 169.4801 344° North  Level FlightAware Approximate
Fri 10:32:00 PM -22.0825 169.4530 344° North  Level FlightAware Approximate
Fri 10:33:00 PM -21.9949 169.4259 344° North  Level FlightAware Approximate
Fri 10:34:00 PM -21.9073 169.3989 344° North  Level FlightAware Approximate
Fri 10:35:00 PM -21.8197 169.3719 344° North  Level FlightAware Approximate
Fri 10:36:00 PM -21.7321 169.3449 344° North  Level FlightAware Approximate
Fri 10:37:00 PM -21.6445 169.3179 344° North  Level FlightAware Approximate
Fri 10:38:00 PM -21.5569 169.2910 344° North  Level FlightAware Approximate
Fri 10:39:00 PM -21.4693 169.2641 344° North  Level FlightAware Approximate
Fri 10:40:00 PM -21.3817 169.2373 344° North  Level FlightAware Approximate
Fri 10:41:00 PM -21.2940 169.2105 344° North  Level FlightAware Approximate
Fri 10:42:00 PM -21.2064 169.1837 344° North  Level FlightAware Approximate
Fri 10:43:00 PM -21.1187 169.1569 344° North  Level FlightAware Approximate
Fri 10:44:00 PM -21.0311 169.1302 344° North  Level FlightAware Approximate
Fri 10:45:00 PM -20.9435 169.1035 344° North  Level FlightAware Approximate
Fri 10:46:00 PM -20.8558 169.0768 344° North  Level FlightAware Approximate
Fri 10:47:00 PM -20.7682 169.0502 344° North  Level FlightAware Approximate
Fri 10:48:00 PM -20.6805 169.0236 344° North  Level FlightAware Approximate
Fri 10:49:00 PM -20.5928 168.9970 344° North  Level FlightAware Approximate
Fri 10:50:00 PM -20.5052 168.9705 344° North  Level FlightAware Approximate
Fri 10:51:00 PM -20.4175 168.9440 344° North  Level FlightAware Approximate
Fri 10:52:00 PM -20.3298 168.9175 344° North  Level FlightAware Approximate
Fri 10:53:00 PM -20.2421 168.8910 344° North  Level FlightAware Approximate
Fri 10:54:00 PM -20.1544 168.8646 344° North  Level FlightAware Approximate
Fri 10:55:00 PM -20.0668 168.8382 344° North  Level FlightAware Approximate
Fri 10:56:00 PM -19.9791 168.8119 344° North  Level FlightAware Approximate
Fri 10:57:00 PM -19.8914 168.7855 344° North  Level FlightAware Approximate
Fri 10:58:00 PM -19.8037 168.7592 344° North  Level FlightAware Approximate
Fri 10:59:00 PM -19.7160 168.7329 344° North  Level FlightAware Approximate
Fri 11:00:00 PM -19.6283 168.7067 344° North  Level FlightAware Approximate
Fri 11:01:00 PM -19.5406 168.6805 344° North  Level FlightAware Approximate
Fri 11:02:00 PM -19.4528 168.6543 344° North  Level FlightAware Approximate
Fri 11:03:00 PM -19.3651 168.6281 344° North  Level FlightAware Approximate
Fri 11:04:00 PM -19.2766 168.6053 348° North  Level FlightAware Approximate
Fri 11:05:00 PM -19.1875 168.5852 348° North  Level FlightAware Approximate
Fri 11:06:00 PM -19.0984 168.5651 348° North  Level FlightAware Approximate
Fri 11:07:00 PM -19.0093 168.5450 348° North  Level FlightAware Approximate
Fri 11:08:00 PM -18.9202 168.5249 348° North  Level FlightAware Approximate
Fri 11:09:00 PM -18.8310 168.5049 348° North  Level FlightAware Approximate
Fri 11:10:00 PM -18.7419 168.4849 348° North  Level FlightAware Approximate
Fri 11:11:00 PM -18.6528 168.4649 348° North  Level FlightAware Approximate
Fri 11:12:00 PM -18.5636 168.4449 348° North  Level FlightAware Approximate
Fri 11:13:00 PM -18.4745 168.4249 348° North  Level FlightAware Approximate
Fri 11:14:00 PM -18.3854 168.4050 348° North  Level FlightAware Approximate
Fri 11:15:00 PM -18.2962 168.3851 348° North  Level FlightAware Approximate
Fri 11:16:00 PM -18.2071 168.3652 348° North  Level FlightAware Approximate
Fri 11:17:00 PM -18.1180 168.3453 348° North  Level FlightAware Approximate
Fri 11:18:00 PM -18.0288 168.3254 348° North  Level FlightAware Approximate
Fri 11:19:00 PM -17.9397 168.3056 348° North  Level FlightAware Approximate
Fri 11:20:00 PM -17.8505 168.2858 348° North  Level FlightAware Approximate
Fri 11:21:00 PM -17.7614 168.2659 348° North  Level FlightAware Approximate
Fri 11:22:00 PM -17.6993 168.3198 348° North  Level Estimated
Fri 11:23:00 PM -17.6993 168.3198 348° North  Level Estimated
Fri 11:24:00 PM -17.6993 168.3198 348° North  Level Estimated
Fri 11:25:00 PM -17.6993 168.3198 348° North  Level Estimated
Fri 11:26:00 PM -17.6993 168.3198 348° North  Level Estimated
Fri 11:27:00 PM -17.6993 168.3198 348° North  Level Estimated

Login

Don't have an account? Register now (free) for customized features, flight alerts, and more!